sensor_id;sensor_type;location;lat;lon;timestamp;P1;durP1;ratioP1;P2;durP2;ratioP2
8474;SDS011;4274;52.012;8.448;2023-03-13T00:00:50;66.77;;;5.43;;
8474;SDS011;4274;52.012;8.448;2023-03-13T00:03:17;51.67;;;5.33;;
8474;SDS011;4274;52.012;8.448;2023-03-13T00:05:42;58.53;;;5.40;;
8474;SDS011;4274;52.012;8.448;2023-03-13T00:08:08;59.90;;;5.53;;
8474;SDS011;4274;52.012;8.448;2023-03-13T00:10:37;58.07;;;5.27;;
8474;SDS011;4274;52.012;8.448;2023-03-13T00:13:04;63.33;;;5.40;;
8474;SDS011;4274;52.012;8.448;2023-03-13T00:15:31;61.70;;;6.33;;
8474;SDS011;4274;52.012;8.448;2023-03-13T00:17:56;73.30;;;5.00;;
8474;SDS011;4274;52.012;8.448;2023-03-13T00:20:22;66.20;;;5.77;;
8474;SDS011;4274;52.012;8.448;2023-03-13T00:22:47;58.97;;;5.67;;
8474;SDS011;4274;52.012;8.448;2023-03-13T00:25:13;64.60;;;5.67;;
8474;SDS011;4274;52.012;8.448;2023-03-13T00:27:38;62.03;;;5.23;;
8474;SDS011;4274;52.012;8.448;2023-03-13T00:30:04;59.03;;;5.10;;
8474;SDS011;4274;52.012;8.448;2023-03-13T00:32:30;62.40;;;5.60;;
8474;SDS011;4274;52.012;8.448;2023-03-13T00:34:55;62.43;;;6.73;;
8474;SDS011;4274;52.012;8.448;2023-03-13T00:37:21;62.43;;;5.83;;
8474;SDS011;4274;52.012;8.448;2023-03-13T00:39:47;63.57;;;6.30;;
8474;SDS011;4274;52.012;8.448;2023-03-13T00:42:12;66.17;;;6.93;;
8474;SDS011;4274;52.012;8.448;2023-03-13T00:44:38;64.00;;;6.57;;
8474;SDS011;4274;52.012;8.448;2023-03-13T00:47:03;74.43;;;8.00;;
8474;SDS011;4274;52.012;8.448;2023-03-13T00:49:30;62.17;;;8.00;;
8474;SDS011;4274;52.012;8.448;2023-03-13T00:51:56;57.53;;;7.27;;
8474;SDS011;4274;52.012;8.448;2023-03-13T00:54:22;54.93;;;6.10;;
8474;SDS011;4274;52.012;8.448;2023-03-13T00:56:47;61.47;;;6.40;;
8474;SDS011;4274;52.012;8.448;2023-03-13T00:59:13;53.97;;;5.87;;
8474;SDS011;4274;52.012;8.448;2023-03-13T01:01:38;62.17;;;5.77;;
8474;SDS011;4274;52.012;8.448;2023-03-13T01:04:05;60.00;;;6.33;;
8474;SDS011;4274;52.012;8.448;2023-03-13T01:06:37;61.17;;;6.43;;
8474;SDS011;4274;52.012;8.448;2023-03-13T01:09:06;66.07;;;6.60;;
8474;SDS011;4274;52.012;8.448;2023-03-13T01:11:34;55.80;;;6.37;;
8474;SDS011;4274;52.012;8.448;2023-03-13T01:14:01;63.20;;;6.23;;
8474;SDS011;4274;52.012;8.448;2023-03-13T01:16:30;66.03;;;7.00;;
8474;SDS011;4274;52.012;8.448;2023-03-13T01:19:01;65.13;;;6.70;;
8474;SDS011;4274;52.012;8.448;2023-03-13T01:21:31;65.60;;;7.13;;
8474;SDS011;4274;52.012;8.448;2023-03-13T01:23:57;63.20;;;6.37;;
8474;SDS011;4274;52.012;8.448;2023-03-13T01:26:23;64.13;;;5.67;;
8474;SDS011;4274;52.012;8.448;2023-03-13T01:28:49;61.90;;;6.93;;
8474;SDS011;4274;52.012;8.448;2023-03-13T01:31:17;62.73;;;7.73;;
8474;SDS011;4274;52.012;8.448;2023-03-13T01:33:43;65.87;;;6.87;;
8474;SDS011;4274;52.012;8.448;2023-03-13T01:36:09;58.50;;;5.20;;
8474;SDS011;4274;52.012;8.448;2023-03-13T01:38:36;57.50;;;6.33;;
8474;SDS011;4274;52.012;8.448;2023-03-13T01:41:02;54.70;;;5.30;;
8474;SDS011;4274;52.012;8.448;2023-03-13T01:43:30;70.40;;;6.57;;
8474;SDS011;4274;52.012;8.448;2023-03-13T01:51:10;54.57;;;5.77;;
8474;SDS011;4274;52.012;8.448;2023-03-13T01:53:40;61.83;;;5.77;;
8474;SDS011;4274;52.012;8.448;2023-03-13T01:56:10;65.00;;;6.70;;
8474;SDS011;4274;52.012;8.448;2023-03-13T01:58:39;57.57;;;5.87;;
8474;SDS011;4274;52.012;8.448;2023-03-13T02:01:04;60.33;;;6.33;;
8474;SDS011;4274;52.012;8.448;2023-03-13T02:03:31;57.83;;;6.60;;
8474;SDS011;4274;52.012;8.448;2023-03-13T02:05:58;60.60;;;5.80;;
8474;SDS011;4274;52.012;8.448;2023-03-13T02:08:32;63.23;;;5.30;;
8474;SDS011;4274;52.012;8.448;2023-03-13T02:11:03;63.50;;;6.60;;
8474;SDS011;4274;52.012;8.448;2023-03-13T02:13:43;60.60;;;7.23;;
8474;SDS011;4274;52.012;8.448;2023-03-13T02:16:09;66.00;;;8.00;;
8474;SDS011;4274;52.012;8.448;2023-03-13T02:18:35;64.00;;;6.83;;
8474;SDS011;4274;52.012;8.448;2023-03-13T02:21:13;67.70;;;7.80;;
8474;SDS011;4274;52.012;8.448;2023-03-13T02:23:51;54.63;;;6.07;;
8474;SDS011;4274;52.012;8.448;2023-03-13T02:26:30;66.33;;;7.00;;
8474;SDS011;4274;52.012;8.448;2023-03-13T02:28:56;57.23;;;4.97;;
8474;SDS011;4274;52.012;8.448;2023-03-13T02:31:21;58.37;;;4.90;;
8474;SDS011;4274;52.012;8.448;2023-03-13T02:33:47;61.30;;;5.10;;
8474;SDS011;4274;52.012;8.448;2023-03-13T02:36:13;57.23;;;5.20;;
8474;SDS011;4274;52.012;8.448;2023-03-13T02:38:43;56.07;;;4.90;;
8474;SDS011;4274;52.012;8.448;2023-03-13T02:41:17;60.03;;;6.27;;
8474;SDS011;4274;52.012;8.448;2023-03-13T02:43:44;50.73;;;4.47;;
8474;SDS011;4274;52.012;8.448;2023-03-13T02:46:11;61.67;;;5.47;;
8474;SDS011;4274;52.012;8.448;2023-03-13T02:48:42;58.13;;;4.97;;
8474;SDS011;4274;52.012;8.448;2023-03-13T02:51:17;66.73;;;5.63;;
8474;SDS011;4274;52.012;8.448;2023-03-13T02:53:56;59.80;;;4.80;;
8474;SDS011;4274;52.012;8.448;2023-03-13T02:56:25;55.33;;;5.10;;
8474;SDS011;4274;52.012;8.448;2023-03-13T02:58:55;56.90;;;5.07;;
8474;SDS011;4274;52.012;8.448;2023-03-13T03:01:20;57.80;;;5.80;;
8474;SDS011;4274;52.012;8.448;2023-03-13T03:03:46;63.83;;;6.93;;
8474;SDS011;4274;52.012;8.448;2023-03-13T03:06:11;59.07;;;6.83;;
8474;SDS011;4274;52.012;8.448;2023-03-13T03:08:37;56.20;;;5.80;;
8474;SDS011;4274;52.012;8.448;2023-03-13T03:11:05;69.90;;;6.03;;
8474;SDS011;4274;52.012;8.448;2023-03-13T03:13:31;63.43;;;5.70;;
8474;SDS011;4274;52.012;8.448;2023-03-13T03:15:57;66.93;;;5.10;;
8474;SDS011;4274;52.012;8.448;2023-03-13T03:18:23;59.13;;;5.93;;
8474;SDS011;4274;52.012;8.448;2023-03-13T03:20:49;64.10;;;5.83;;
8474;SDS011;4274;52.012;8.448;2023-03-13T03:23:14;58.20;;;5.93;;
8474;SDS011;4274;52.012;8.448;2023-03-13T03:25:40;65.93;;;4.90;;
8474;SDS011;4274;52.012;8.448;2023-03-13T03:28:05;61.00;;;5.93;;
8474;SDS011;4274;52.012;8.448;2023-03-13T03:30:31;76.23;;;6.73;;
8474;SDS011;4274;52.012;8.448;2023-03-13T03:32:57;55.93;;;5.30;;
8474;SDS011;4274;52.012;8.448;2023-03-13T03:35:22;57.97;;;5.13;;
8474;SDS011;4274;52.012;8.448;2023-03-13T03:37:48;62.67;;;5.30;;
8474;SDS011;4274;52.012;8.448;2023-03-13T03:40:14;56.90;;;4.80;;
8474;SDS011;4274;52.012;8.448;2023-03-13T03:42:39;67.67;;;5.33;;
8474;SDS011;4274;52.012;8.448;2023-03-13T03:45:05;66.37;;;5.90;;
8474;SDS011;4274;52.012;8.448;2023-03-13T03:47:31;67.60;;;5.67;;
8474;SDS011;4274;52.012;8.448;2023-03-13T03:49:56;63.23;;;6.20;;
8474;SDS011;4274;52.012;8.448;2023-03-13T03:52:22;60.07;;;5.73;;
8474;SDS011;4274;52.012;8.448;2023-03-13T03:54:47;63.80;;;6.27;;
8474;SDS011;4274;52.012;8.448;2023-03-13T03:57:13;52.50;;;5.60;;
8474;SDS011;4274;52.012;8.448;2023-03-13T03:59:38;62.47;;;6.37;;
8474;SDS011;4274;52.012;8.448;2023-03-13T04:02:04;64.50;;;6.27;;
8474;SDS011;4274;52.012;8.448;2023-03-13T04:04:30;51.20;;;6.03;;
8474;SDS011;4274;52.012;8.448;2023-03-13T04:06:55;59.07;;;5.70;;
8474;SDS011;4274;52.012;8.448;2023-03-13T04:09:21;53.47;;;5.53;;
8474;SDS011;4274;52.012;8.448;2023-03-13T04:11:46;52.13;;;5.70;;
8474;SDS011;4274;52.012;8.448;2023-03-13T04:14:12;68.10;;;7.23;;
8474;SDS011;4274;52.012;8.448;2023-03-13T04:16:37;55.37;;;6.43;;
8474;SDS011;4274;52.012;8.448;2023-03-13T04:19:03;68.97;;;5.37;;
8474;SDS011;4274;52.012;8.448;2023-03-13T04:21:28;61.67;;;5.67;;
8474;SDS011;4274;52.012;8.448;2023-03-13T04:23:54;55.50;;;6.07;;
8474;SDS011;4274;52.012;8.448;2023-03-13T04:26:19;61.10;;;5.20;;
8474;SDS011;4274;52.012;8.448;2023-03-13T04:28:45;62.90;;;6.50;;
8474;SDS011;4274;52.012;8.448;2023-03-13T04:31:11;63.07;;;4.97;;
8474;SDS011;4274;52.012;8.448;2023-03-13T04:33:36;58.37;;;5.40;;
8474;SDS011;4274;52.012;8.448;2023-03-13T04:36:02;56.20;;;5.80;;
8474;SDS011;4274;52.012;8.448;2023-03-13T04:38:28;48.47;;;4.80;;
8474;SDS011;4274;52.012;8.448;2023-03-13T04:40:53;52.83;;;4.73;;
8474;SDS011;4274;52.012;8.448;2023-03-13T04:43:19;47.87;;;3.80;;
8474;SDS011;4274;52.012;8.448;2023-03-13T04:45:44;49.10;;;4.40;;
8474;SDS011;4274;52.012;8.448;2023-03-13T04:48:10;44.17;;;3.33;;
8474;SDS011;4274;52.012;8.448;2023-03-13T04:50:36;56.47;;;4.20;;
8474;SDS011;4274;52.012;8.448;2023-03-13T04:53:02;51.17;;;3.90;;
8474;SDS011;4274;52.012;8.448;2023-03-13T04:55:28;48.50;;;3.67;;
8474;SDS011;4274;52.012;8.448;2023-03-13T04:57:53;46.20;;;4.63;;
8474;SDS011;4274;52.012;8.448;2023-03-13T05:00:19;47.20;;;3.60;;
8474;SDS011;4274;52.012;8.448;2023-03-13T05:02:45;45.53;;;3.60;;
8474;SDS011;4274;52.012;8.448;2023-03-13T05:05:10;46.17;;;4.23;;
8474;SDS011;4274;52.012;8.448;2023-03-13T05:07:36;50.27;;;3.97;;
8474;SDS011;4274;52.012;8.448;2023-03-13T05:10:01;53.33;;;4.00;;
8474;SDS011;4274;52.012;8.448;2023-03-13T05:12:27;45.00;;;3.73;;
8474;SDS011;4274;52.012;8.448;2023-03-13T05:14:53;48.80;;;3.80;;
8474;SDS011;4274;52.012;8.448;2023-03-13T05:17:18;47.73;;;3.50;;
8474;SDS011;4274;52.012;8.448;2023-03-13T05:19:44;44.60;;;3.97;;
8474;SDS011;4274;52.012;8.448;2023-03-13T05:22:09;45.57;;;3.90;;
8474;SDS011;4274;52.012;8.448;2023-03-13T05:24:35;43.07;;;3.80;;
8474;SDS011;4274;52.012;8.448;2023-03-13T05:27:00;46.20;;;3.40;;
8474;SDS011;4274;52.012;8.448;2023-03-13T05:29:26;45.70;;;4.13;;
8474;SDS011;4274;52.012;8.448;2023-03-13T05:31:52;41.50;;;3.60;;
8474;SDS011;4274;52.012;8.448;2023-03-13T05:34:17;44.03;;;3.63;;
8474;SDS011;4274;52.012;8.448;2023-03-13T05:36:43;45.27;;;3.67;;
8474;SDS011;4274;52.012;8.448;2023-03-13T05:39:09;42.90;;;4.33;;
8474;SDS011;4274;52.012;8.448;2023-03-13T05:41:34;41.80;;;4.30;;
8474;SDS011;4274;52.012;8.448;2023-03-13T05:44:00;43.87;;;3.70;;
8474;SDS011;4274;52.012;8.448;2023-03-13T05:46:26;48.63;;;3.97;;
8474;SDS011;4274;52.012;8.448;2023-03-13T05:48:51;41.50;;;3.40;;
8474;SDS011;4274;52.012;8.448;2023-03-13T05:51:17;45.50;;;3.77;;
8474;SDS011;4274;52.012;8.448;2023-03-13T05:53:43;48.10;;;4.10;;
8474;SDS011;4274;52.012;8.448;2023-03-13T05:56:09;42.40;;;3.77;;
8474;SDS011;4274;52.012;8.448;2023-03-13T05:58:34;42.33;;;3.97;;
8474;SDS011;4274;52.012;8.448;2023-03-13T06:01:10;47.73;;;3.97;;
8474;SDS011;4274;52.012;8.448;2023-03-13T06:03:37;41.60;;;3.43;;
8474;SDS011;4274;52.012;8.448;2023-03-13T06:06:03;49.77;;;5.20;;
8474;SDS011;4274;52.012;8.448;2023-03-13T06:08:29;44.33;;;4.40;;
8474;SDS011;4274;52.012;8.448;2023-03-13T06:10:59;43.93;;;3.60;;
8474;SDS011;4274;52.012;8.448;2023-03-13T06:13:25;43.00;;;4.03;;
8474;SDS011;4274;52.012;8.448;2023-03-13T06:15:52;41.20;;;4.00;;
8474;SDS011;4274;52.012;8.448;2023-03-13T06:18:19;42.10;;;4.03;;
8474;SDS011;4274;52.012;8.448;2023-03-13T06:20:45;44.03;;;4.50;;
8474;SDS011;4274;52.012;8.448;2023-03-13T06:23:12;42.70;;;4.60;;
8474;SDS011;4274;52.012;8.448;2023-03-13T06:25:37;42.83;;;5.10;;
8474;SDS011;4274;52.012;8.448;2023-03-13T06:28:03;43.33;;;5.30;;
8474;SDS011;4274;52.012;8.448;2023-03-13T06:30:28;46.60;;;5.10;;
8474;SDS011;4274;52.012;8.448;2023-03-13T06:32:54;42.47;;;5.47;;
8474;SDS011;4274;52.012;8.448;2023-03-13T06:35:19;48.87;;;7.17;;
8474;SDS011;4274;52.012;8.448;2023-03-13T06:37:45;46.73;;;5.73;;
8474;SDS011;4274;52.012;8.448;2023-03-13T06:40:11;49.67;;;8.00;;
8474;SDS011;4274;52.012;8.448;2023-03-13T06:42:37;47.93;;;6.67;;
8474;SDS011;4274;52.012;8.448;2023-03-13T06:45:02;53.30;;;7.33;;
8474;SDS011;4274;52.012;8.448;2023-03-13T06:47:31;48.43;;;7.93;;
8474;SDS011;4274;52.012;8.448;2023-03-13T06:49:57;50.67;;;8.97;;
8474;SDS011;4274;52.012;8.448;2023-03-13T06:52:23;44.83;;;6.40;;
8474;SDS011;4274;52.012;8.448;2023-03-13T06:54:49;44.33;;;6.40;;
8474;SDS011;4274;52.012;8.448;2023-03-13T06:57:15;47.70;;;8.43;;
8474;SDS011;4274;52.012;8.448;2023-03-13T06:59:40;45.00;;;6.60;;
8474;SDS011;4274;52.012;8.448;2023-03-13T07:02:07;45.60;;;6.50;;
8474;SDS011;4274;52.012;8.448;2023-03-13T07:04:36;49.77;;;6.80;;
8474;SDS011;4274;52.012;8.448;2023-03-13T07:07:02;44.20;;;5.93;;
8474;SDS011;4274;52.012;8.448;2023-03-13T07:09:28;44.63;;;6.20;;
8474;SDS011;4274;52.012;8.448;2023-03-13T07:11:54;43.57;;;6.13;;
8474;SDS011;4274;52.012;8.448;2023-03-13T07:14:20;43.10;;;6.50;;
8474;SDS011;4274;52.012;8.448;2023-03-13T07:16:45;43.40;;;6.30;;
8474;SDS011;4274;52.012;8.448;2023-03-13T07:19:11;45.40;;;6.80;;
8474;SDS011;4274;52.012;8.448;2023-03-13T07:21:37;46.03;;;6.33;;
8474;SDS011;4274;52.012;8.448;2023-03-13T07:24:03;45.63;;;7.13;;
8474;SDS011;4274;52.012;8.448;2023-03-13T07:26:29;46.97;;;7.00;;
8474;SDS011;4274;52.012;8.448;2023-03-13T07:28:54;43.43;;;6.50;;
8474;SDS011;4274;52.012;8.448;2023-03-13T07:31:20;43.97;;;6.23;;
8474;SDS011;4274;52.012;8.448;2023-03-13T07:33:47;43.40;;;6.30;;
8474;SDS011;4274;52.012;8.448;2023-03-13T07:36:14;44.60;;;6.20;;
8474;SDS011;4274;52.012;8.448;2023-03-13T07:38:40;44.30;;;6.43;;
8474;SDS011;4274;52.012;8.448;2023-03-13T07:41:09;42.83;;;5.40;;
8474;SDS011;4274;52.012;8.448;2023-03-13T07:43:37;44.80;;;6.70;;
8474;SDS011;4274;52.012;8.448;2023-03-13T07:46:03;48.37;;;5.43;;
8474;SDS011;4274;52.012;8.448;2023-03-13T07:48:31;43.20;;;5.37;;
8474;SDS011;4274;52.012;8.448;2023-03-13T07:50:59;43.80;;;5.47;;
8474;SDS011;4274;52.012;8.448;2023-03-13T07:53:24;44.30;;;5.40;;
8474;SDS011;4274;52.012;8.448;2023-03-13T07:55:51;42.80;;;5.50;;
8474;SDS011;4274;52.012;8.448;2023-03-13T07:58:29;43.13;;;5.40;;
8474;SDS011;4274;52.012;8.448;2023-03-13T08:00:56;43.17;;;5.30;;
8474;SDS011;4274;52.012;8.448;2023-03-13T08:03:22;43.70;;;5.47;;
8474;SDS011;4274;52.012;8.448;2023-03-13T08:06:02;46.83;;;4.80;;
8474;SDS011;4274;52.012;8.448;2023-03-13T08:08:29;46.90;;;4.70;;
8474;SDS011;4274;52.012;8.448;2023-03-13T08:13:30;41.70;;;4.70;;
8474;SDS011;4274;52.012;8.448;2023-03-13T08:16:04;41.70;;;4.23;;
8474;SDS011;4274;52.012;8.448;2023-03-13T08:18:30;42.53;;;4.10;;
8474;SDS011;4274;52.012;8.448;2023-03-13T08:21:00;44.83;;;4.20;;
8474;SDS011;4274;52.012;8.448;2023-03-13T08:23:26;41.80;;;4.20;;
8474;SDS011;4274;52.012;8.448;2023-03-13T08:25:52;42.20;;;4.57;;
8474;SDS011;4274;52.012;8.448;2023-03-13T08:28:18;44.40;;;4.30;;
8474;SDS011;4274;52.012;8.448;2023-03-13T08:30:43;44.83;;;4.37;;
8474;SDS011;4274;52.012;8.448;2023-03-13T08:33:09;44.20;;;3.90;;
8474;SDS011;4274;52.012;8.448;2023-03-13T08:35:35;42.30;;;3.50;;
8474;SDS011;4274;52.012;8.448;2023-03-13T08:38:00;42.80;;;3.83;;
8474;SDS011;4274;52.012;8.448;2023-03-13T08:40:26;41.50;;;3.40;;
8474;SDS011;4274;52.012;8.448;2023-03-13T08:42:52;45.10;;;3.80;;
8474;SDS011;4274;52.012;8.448;2023-03-13T08:45:18;44.60;;;3.97;;
8474;SDS011;4274;52.012;8.448;2023-03-13T08:47:44;41.70;;;3.50;;
8474;SDS011;4274;52.012;8.448;2023-03-13T08:50:09;45.30;;;3.60;;
8474;SDS011;4274;52.012;8.448;2023-03-13T08:52:35;43.00;;;3.17;;
8474;SDS011;4274;52.012;8.448;2023-03-13T08:55:01;42.17;;;3.90;;
8474;SDS011;4274;52.012;8.448;2023-03-13T08:57:26;42.20;;;3.27;;
8474;SDS011;4274;52.012;8.448;2023-03-13T08:59:52;41.43;;;3.40;;
8474;SDS011;4274;52.012;8.448;2023-03-13T09:02:17;41.70;;;3.57;;
8474;SDS011;4274;52.012;8.448;2023-03-13T09:04:45;42.80;;;3.60;;
8474;SDS011;4274;52.012;8.448;2023-03-13T09:07:12;43.40;;;3.53;;
8474;SDS011;4274;52.012;8.448;2023-03-13T09:09:38;43.70;;;3.47;;
8474;SDS011;4274;52.012;8.448;2023-03-13T09:12:04;43.93;;;3.70;;
8474;SDS011;4274;52.012;8.448;2023-03-13T09:14:29;43.90;;;3.73;;
8474;SDS011;4274;52.012;8.448;2023-03-13T09:16:55;45.70;;;3.70;;
8474;SDS011;4274;52.012;8.448;2023-03-13T09:19:21;45.07;;;3.70;;
8474;SDS011;4274;52.012;8.448;2023-03-13T09:21:47;42.80;;;3.20;;
8474;SDS011;4274;52.012;8.448;2023-03-13T09:24:13;43.30;;;3.63;;
8474;SDS011;4274;52.012;8.448;2023-03-13T09:26:40;44.63;;;3.27;;
8474;SDS011;4274;52.012;8.448;2023-03-13T09:29:05;46.00;;;4.10;;
8474;SDS011;4274;52.012;8.448;2023-03-13T09:31:31;43.10;;;3.70;;
8474;SDS011;4274;52.012;8.448;2023-03-13T09:33:57;47.73;;;4.13;;
8474;SDS011;4274;52.012;8.448;2023-03-13T09:36:24;48.57;;;5.97;;
8474;SDS011;4274;52.012;8.448;2023-03-13T09:38:51;49.33;;;4.10;;
8474;SDS011;4274;52.012;8.448;2023-03-13T09:41:20;46.90;;;3.67;;
8474;SDS011;4274;52.012;8.448;2023-03-13T09:44:16;43.80;;;3.40;;
8474;SDS011;4274;52.012;8.448;2023-03-13T09:52:17;47.13;;;3.87;;
8474;SDS011;4274;52.012;8.448;2023-03-13T09:57:23;43.90;;;4.50;;
8474;SDS011;4274;52.012;8.448;2023-03-13T10:02:33;44.33;;;4.10;;
8474;SDS011;4274;52.012;8.448;2023-03-13T10:07:38;46.20;;;3.40;;
8474;SDS011;4274;52.012;8.448;2023-03-13T10:10:06;44.40;;;4.07;;
8474;SDS011;4274;52.012;8.448;2023-03-13T10:12:39;45.10;;;3.33;;
8474;SDS011;4274;52.012;8.448;2023-03-13T10:17:45;48.67;;;4.30;;
8474;SDS011;4274;52.012;8.448;2023-03-13T10:22:47;46.00;;;3.90;;
8474;SDS011;4274;52.012;8.448;2023-03-13T10:27:48;46.70;;;3.83;;
8474;SDS011;4274;52.012;8.448;2023-03-13T10:30:25;45.03;;;3.73;;
8474;SDS011;4274;52.012;8.448;2023-03-13T10:32:58;46.97;;;3.20;;
8474;SDS011;4274;52.012;8.448;2023-03-13T10:35:30;45.40;;;3.80;;
8474;SDS011;4274;52.012;8.448;2023-03-13T10:38:22;45.20;;;3.80;;
8474;SDS011;4274;52.012;8.448;2023-03-13T10:40:57;48.30;;;3.37;;
8474;SDS011;4274;52.012;8.448;2023-03-13T10:43:25;46.00;;;3.90;;
8474;SDS011;4274;52.012;8.448;2023-03-13T10:45:52;45.40;;;3.30;;
8474;SDS011;4274;52.012;8.448;2023-03-13T10:50:48;46.60;;;3.40;;
8474;SDS011;4274;52.012;8.448;2023-03-13T10:53:30;48.50;;;3.97;;
8474;SDS011;4274;52.012;8.448;2023-03-13T10:58:40;45.90;;;3.67;;
8474;SDS011;4274;52.012;8.448;2023-03-13T11:03:50;43.50;;;3.33;;
8474;SDS011;4274;52.012;8.448;2023-03-13T11:06:31;44.60;;;3.10;;
8474;SDS011;4274;52.012;8.448;2023-03-13T11:12:13;49.30;;;3.10;;
8474;SDS011;4274;52.012;8.448;2023-03-13T11:14:31;43.90;;;3.03;;
8474;SDS011;4274;52.012;8.448;2023-03-13T11:17:22;43.23;;;3.17;;
8474;SDS011;4274;52.012;8.448;2023-03-13T11:25:17;43.70;;;2.97;;
8474;SDS011;4274;52.012;8.448;2023-03-13T11:28:01;43.57;;;2.57;;
8474;SDS011;4274;52.012;8.448;2023-03-13T11:39:02;42.83;;;2.83;;
8474;SDS011;4274;52.012;8.448;2023-03-13T11:44:22;44.90;;;3.00;;
8474;SDS011;4274;52.012;8.448;2023-03-13T11:52:08;43.17;;;2.90;;
8474;SDS011;4274;52.012;8.448;2023-03-13T12:01:08;43.73;;;3.33;;
8474;SDS011;4274;52.012;8.448;2023-03-13T12:06:18;47.63;;;2.57;;
8474;SDS011;4274;52.012;8.448;2023-03-13T12:08:57;43.30;;;3.03;;
8474;SDS011;4274;52.012;8.448;2023-03-13T12:11:40;41.97;;;2.50;;
8474;SDS011;4274;52.012;8.448;2023-03-13T12:14:25;43.60;;;2.67;;
8474;SDS011;4274;52.012;8.448;2023-03-13T12:16:58;43.10;;;2.50;;
8474;SDS011;4274;52.012;8.448;2023-03-13T12:22:15;50.20;;;2.43;;
8474;SDS011;4274;52.012;8.448;2023-03-13T12:24:54;43.60;;;2.53;;
8474;SDS011;4274;52.012;8.448;2023-03-13T12:29:59;43.60;;;2.33;;
8474;SDS011;4274;52.012;8.448;2023-03-13T12:32:33;42.87;;;2.30;;
8474;SDS011;4274;52.012;8.448;2023-03-13T12:40:21;45.50;;;2.50;;
8474;SDS011;4274;52.012;8.448;2023-03-13T12:43:36;42.70;;;2.27;;
8474;SDS011;4274;52.012;8.448;2023-03-13T12:59:58;43.00;;;2.20;;
8474;SDS011;4274;52.012;8.448;2023-03-13T13:02:29;43.00;;;2.20;;
8474;SDS011;4274;52.012;8.448;2023-03-13T13:04:56;42.50;;;1.90;;
8474;SDS011;4274;52.012;8.448;2023-03-13T13:07:25;46.55;;;2.40;;
8474;SDS011;4274;52.012;8.448;2023-03-13T13:12:36;45.95;;;1.55;;
8474;SDS011;4274;52.012;8.448;2023-03-13T13:15:10;42.77;;;2.00;;
8474;SDS011;4274;52.012;8.448;2023-03-13T13:17:49;54.47;;;2.57;;
8474;SDS011;4274;52.012;8.448;2023-03-13T13:22:56;42.43;;;1.80;;
8474;SDS011;4274;52.012;8.448;2023-03-13T13:25:40;42.87;;;1.93;;
8474;SDS011;4274;52.012;8.448;2023-03-13T13:30:45;43.30;;;2.23;;
8474;SDS011;4274;52.012;8.448;2023-03-13T13:35:43;42.60;;;2.13;;
8474;SDS011;4274;52.012;8.448;2023-03-13T13:43:47;45.90;;;2.23;;
8474;SDS011;4274;52.012;8.448;2023-03-13T13:46:24;42.97;;;2.10;;
8474;SDS011;4274;52.012;8.448;2023-03-13T13:51:30;43.30;;;1.90;;
8474;SDS011;4274;52.012;8.448;2023-03-13T13:54:02;44.33;;;2.40;;
8474;SDS011;4274;52.012;8.448;2023-03-13T13:56:55;44.40;;;2.20;;
8474;SDS011;4274;52.012;8.448;2023-03-13T13:59:30;45.70;;;2.00;;
8474;SDS011;4274;52.012;8.448;2023-03-13T14:10:06;44.50;;;1.97;;
8474;SDS011;4274;52.012;8.448;2023-03-13T14:12:53;42.93;;;1.90;;
8474;SDS011;4274;52.012;8.448;2023-03-13T14:15:22;43.00;;;2.00;;
8474;SDS011;4274;52.012;8.448;2023-03-13T14:17:54;43.80;;;2.00;;
8474;SDS011;4274;52.012;8.448;2023-03-13T14:20:29;42.80;;;2.10;;
8474;SDS011;4274;52.012;8.448;2023-03-13T14:23:00;44.33;;;1.87;;
8474;SDS011;4274;52.012;8.448;2023-03-13T14:25:38;44.27;;;1.90;;
8474;SDS011;4274;52.012;8.448;2023-03-13T14:28:20;42.00;;;1.77;;
8474;SDS011;4274;52.012;8.448;2023-03-13T14:30:51;44.10;;;1.93;;
8474;SDS011;4274;52.012;8.448;2023-03-13T14:33:19;45.37;;;2.10;;
8474;SDS011;4274;52.012;8.448;2023-03-13T14:35:45;48.33;;;3.60;;
8474;SDS011;4274;52.012;8.448;2023-03-13T14:38:21;42.23;;;1.90;;
8474;SDS011;4274;52.012;8.448;2023-03-13T14:40:48;42.30;;;2.00;;
8474;SDS011;4274;52.012;8.448;2023-03-13T14:43:34;49.40;;;2.90;;
8474;SDS011;4274;52.012;8.448;2023-03-13T14:46:14;42.77;;;2.03;;
8474;SDS011;4274;52.012;8.448;2023-03-13T14:48:48;42.90;;;2.03;;
8474;SDS011;4274;52.012;8.448;2023-03-13T14:51:20;41.83;;;1.77;;
8474;SDS011;4274;52.012;8.448;2023-03-13T14:53:55;43.10;;;2.17;;
8474;SDS011;4274;52.012;8.448;2023-03-13T14:59:07;46.13;;;2.50;;
8474;SDS011;4274;52.012;8.448;2023-03-13T15:01:43;43.50;;;1.97;;
8474;SDS011;4274;52.012;8.448;2023-03-13T15:04:09;43.30;;;2.63;;
8474;SDS011;4274;52.012;8.448;2023-03-13T15:06:34;42.37;;;2.00;;
8474;SDS011;4274;52.012;8.448;2023-03-13T15:09:12;47.07;;;2.07;;
8474;SDS011;4274;52.012;8.448;2023-03-13T15:11:53;42.30;;;2.00;;
8474;SDS011;4274;52.012;8.448;2023-03-13T15:14:34;43.03;;;2.10;;
8474;SDS011;4274;52.012;8.448;2023-03-13T15:19:42;42.40;;;1.80;;
8474;SDS011;4274;52.012;8.448;2023-03-13T15:22:12;43.47;;;1.90;;
8474;SDS011;4274;52.012;8.448;2023-03-13T15:24:40;44.90;;;1.80;;
8474;SDS011;4274;52.012;8.448;2023-03-13T15:27:40;47.60;;;2.37;;
8474;SDS011;4274;52.012;8.448;2023-03-13T15:29:59;42.67;;;1.93;;
8474;SDS011;4274;52.012;8.448;2023-03-13T15:32:25;51.17;;;2.10;;
8474;SDS011;4274;52.012;8.448;2023-03-13T15:34:53;46.08;;;2.13;;
8474;SDS011;4274;52.012;8.448;2023-03-13T15:37:25;45.10;;;2.27;;
8474;SDS011;4274;52.012;8.448;2023-03-13T15:39:50;44.60;;;1.90;;
8474;SDS011;4274;52.012;8.448;2023-03-13T15:42:17;45.27;;;2.40;;
8474;SDS011;4274;52.012;8.448;2023-03-13T15:44:42;44.20;;;2.33;;
8474;SDS011;4274;52.012;8.448;2023-03-13T15:47:09;45.43;;;2.27;;
8474;SDS011;4274;52.012;8.448;2023-03-13T15:49:38;42.90;;;2.07;;
8474;SDS011;4274;52.012;8.448;2023-03-13T15:52:07;42.57;;;1.80;;
8474;SDS011;4274;52.012;8.448;2023-03-13T15:54:38;43.87;;;1.87;;
8474;SDS011;4274;52.012;8.448;2023-03-13T15:57:03;43.10;;;2.13;;
8474;SDS011;4274;52.012;8.448;2023-03-13T15:59:29;43.23;;;2.13;;
8474;SDS011;4274;52.012;8.448;2023-03-13T16:01:54;43.60;;;2.00;;
8474;SDS011;4274;52.012;8.448;2023-03-13T16:04:20;43.80;;;2.20;;
8474;SDS011;4274;52.012;8.448;2023-03-13T16:06:45;44.87;;;2.07;;
8474;SDS011;4274;52.012;8.448;2023-03-13T16:09:11;47.40;;;2.37;;
8474;SDS011;4274;52.012;8.448;2023-03-13T16:11:37;45.47;;;2.07;;
8474;SDS011;4274;52.012;8.448;2023-03-13T16:14:02;43.63;;;2.27;;
8474;SDS011;4274;52.012;8.448;2023-03-13T16:16:29;41.97;;;1.93;;
8474;SDS011;4274;52.012;8.448;2023-03-13T16:18:57;51.83;;;2.13;;
8474;SDS011;4274;52.012;8.448;2023-03-13T16:21:25;43.50;;;2.40;;
8474;SDS011;4274;52.012;8.448;2023-03-13T16:23:52;44.47;;;2.40;;
8474;SDS011;4274;52.012;8.448;2023-03-13T16:26:19;43.13;;;2.10;;
8474;SDS011;4274;52.012;8.448;2023-03-13T16:28:46;48.93;;;2.80;;
8474;SDS011;4274;52.012;8.448;2023-03-13T16:31:14;43.00;;;2.50;;
8474;SDS011;4274;52.012;8.448;2023-03-13T16:33:42;44.10;;;2.00;;
8474;SDS011;4274;52.012;8.448;2023-03-13T16:36:27;44.30;;;2.00;;
8474;SDS011;4274;52.012;8.448;2023-03-13T16:38:55;42.07;;;1.90;;
8474;SDS011;4274;52.012;8.448;2023-03-13T16:41:26;44.10;;;2.30;;
8474;SDS011;4274;52.012;8.448;2023-03-13T16:43:52;43.10;;;2.10;;
8474;SDS011;4274;52.012;8.448;2023-03-13T16:46:20;42.57;;;2.17;;
8474;SDS011;4274;52.012;8.448;2023-03-13T16:49:00;43.30;;;2.20;;
8474;SDS011;4274;52.012;8.448;2023-03-13T16:51:27;42.97;;;2.10;;
8474;SDS011;4274;52.012;8.448;2023-03-13T16:53:53;49.97;;;2.00;;
8474;SDS011;4274;52.012;8.448;2023-03-13T16:56:29;44.10;;;2.47;;
8474;SDS011;4274;52.012;8.448;2023-03-13T16:58:58;44.00;;;2.10;;
8474;SDS011;4274;52.012;8.448;2023-03-13T17:01:25;42.67;;;2.33;;
8474;SDS011;4274;52.012;8.448;2023-03-13T17:03:52;43.70;;;2.23;;
8474;SDS011;4274;52.012;8.448;2023-03-13T17:06:20;43.90;;;2.90;;
8474;SDS011;4274;52.012;8.448;2023-03-13T17:08:47;44.40;;;2.27;;
8474;SDS011;4274;52.012;8.448;2023-03-13T17:11:14;42.20;;;2.33;;
8474;SDS011;4274;52.012;8.448;2023-03-13T17:13:42;42.90;;;2.37;;
8474;SDS011;4274;52.012;8.448;2023-03-13T17:16:14;45.73;;;2.30;;